ASN logo
ASN Wikibase Occurrence # 219098
Last updated: 14 December 2018
This information is added by users of ASN. Neither ASN nor the Flight Safety Foundation are responsible for the completeness or correctness of this information. If you feel this information is incomplete or incorrect, you can submit corrected information.

Date:06-DEC-2018
Time:09:04 LT
Type:Silhouette image of generic B737 model; specific model in this crash may look slightly different
Boeing 737-7H4 (WL)
Owner/operator:Southwest Airlines
Registration: N752SW
C/n / msn: 29804/387
Fatalities:Fatalities: 0 / Occupants: 117
Other fatalities:0
Aircraft damage: Minor
Location:Hollywood Burbank Airport, CA (BUR/KBUR) -   United States of America
Phase: Landing
Nature:Domestic Scheduled Passenger
Departure airport:Oakland International Airport, CA (OAK/KOAK)
Destination airport:Hollywood Burbank Airport, CA (BUR/KBUR)
Narrative:
Southwest Airlines flight WN278 from Oakland suffered a runway excursion on landing on runway 08 at Hollywood Burbank Airport. The aircraft was stopped by the Engineered Material Arresting System (EMAS) at the end of the runway.
There were no reported injuries among the 112 passengers and five crewmembers.

Weather reported about the incident time (1704Z):
KBUR 061715Z 29008KT 1SM +RA BR FEW005 BKN013 OVC031 08/08 A2993 RMK AO2 AIRCRAFT MISHAP P0026 T00830078
KBUR 061653Z 28011KT 1 1/2SM +RA BR FEW004 OVC013 08/08 A2991 RMK AO2 SLP122 P0033 T00830083

Sources:

http://www.fox10phoenix.com/home/southwest-airlines-flight-skids-off-runway-at-burbank-airport
http://www.goklerdeyiz.net/southwest-ucagi-pistten-cikti/
FAA EMAS factsheet: https://www.faa.gov/news/fact_sheets/news_story.cfm?newsId=13754
Previous runway 08 overrun accident at BUR: https://aviation-safety.net/database/record.php?id=20000305-0


Revision history:

Date/timeContributorUpdates
06-Dec-2018 18:18 Goklerdeyiz.net Added
06-Dec-2018 18:21 harro Updated [Aircraft type, Total occupants, Other fatalities, Location, Departure airport, Destination airport, Source, Embed code, Narrative]
06-Dec-2018 18:35 harro Updated [Time, Cn, Source, Embed code, Narrative]
06-Dec-2018 18:37 harro Updated [Embed code]
06-Dec-2018 19:50 harro Updated [Embed code]
06-Dec-2018 20:33 harro Updated [Narrative]
07-Dec-2018 20:45 Iceman 29 Updated [Embed code]

Corrections or additions? ... Edit this accident description